Time;durP1;ratioP1;P1;durP2;ratioP2;P2;SDS_P1;SDS_P2;PMS_P1;PMS_P2;Temp;Humidity;BMP_temperature;BMP_pressure;BME280_temperature;BME280_humidity;BME280_pressure;Samples;Min_cycle;Max_cycle;Signal;HPM_P1;HPM_P2
2023/09/27 00:00:51;;;;;;;5.80;4.28;;;18.30;62.40;;;;;;4813019;29;20219;-33
2023/09/27 00:03:20;;;;;;;6.13;4.90;;;18.30;62.40;;;;;;4797857;29;20586;-33
2023/09/27 00:05:50;;;;;;;7.25;4.82;;;18.20;62.40;;;;;;4799249;29;20225;-33
2023/09/27 00:08:19;;;;;;;6.10;4.72;;;18.20;62.40;;;;;;4797475;29;20213;-33
2023/09/27 00:10:51;;;;;;;11.13;5.60;;;18.20;62.50;;;;;;4798969;29;20213;-33
2023/09/27 00:13:21;;;;;;;9.68;5.15;;;18.10;62.50;;;;;;4812172;29;20209;-33
2023/09/27 00:15:48;;;;;;;6.88;5.13;;;18.10;62.50;;;;;;4812963;29;20240;-33
2023/09/27 00:18:15;;;;;;;6.90;4.43;;;18.10;62.50;;;;;;4812520;29;20775;-33
2023/09/27 00:20:45;;;;;;;7.60;4.78;;;18.00;62.50;;;;;;4797381;29;20205;-33
2023/09/27 00:23:12;;;;;;;7.88;4.88;;;18.00;62.60;;;;;;4798583;29;20209;-33
2023/09/27 00:25:39;;;;;;;6.35;4.80;;;18.00;62.60;;;;;;4812351;29;20239;-33
2023/09/27 00:28:09;;;;;;;7.05;4.90;;;17.90;62.60;;;;;;4797100;29;20554;-33
2023/09/27 00:30:36;;;;;;;6.10;4.53;;;17.90;62.70;;;;;;4798252;29;20717;-33
2023/09/27 00:33:04;;;;;;;7.45;4.95;;;17.90;62.70;;;;;;4796994;29;20204;-34
2023/09/27 00:35:32;;;;;;;5.03;4.20;;;17.90;62.70;;;;;;4798765;29;20312;-34
2023/09/27 00:38:01;;;;;;;5.60;4.60;;;17.90;62.80;;;;;;4798664;29;20308;-34
2023/09/27 00:40:31;;;;;;;6.43;4.80;;;17.80;62.70;;;;;;4797677;29;20217;-33
2023/09/27 00:42:58;;;;;;;7.18;5.18;;;17.80;62.70;;;;;;4798767;29;20799;-33
2023/09/27 00:45:25;;;;;;;8.07;5.22;;;17.80;62.80;;;;;;4797161;29;20213;-33
2023/09/27 00:47:55;;;;;;;6.65;5.80;;;17.80;62.80;;;;;;4798345;29;20211;-33
2023/09/27 00:50:24;;;;;;;11.93;5.38;;;17.70;62.80;;;;;;4798342;29;20545;-33
2023/09/27 00:52:54;;;;;;;9.05;5.13;;;17.70;62.90;;;;;;4796992;29;20316;-33
2023/09/27 00:55:23;;;;;;;9.98;5.22;;;17.70;62.90;;;;;;4811887;29;20209;-33
2023/09/27 00:57:50;;;;;;;6.55;5.20;;;17.60;62.90;;;;;;4795846;29;20307;-33
2023/09/27 01:00:23;;;;;;;7.25;5.07;;;17.60;63.00;;;;;;4796507;29;20221;-33
2023/09/27 01:02:51;;;;;;;7.95;5.35;;;17.60;63.00;;;;;;4797083;29;20493;-33
2023/09/27 01:05:20;;;;;;;6.55;5.35;;;17.60;63.00;;;;;;4798467;29;20221;-33
2023/09/27 01:07:47;;;;;;;8.23;5.35;;;17.60;63.00;;;;;;4800251;29;20279;-33
2023/09/27 01:10:14;;;;;;;8.45;6.13;;;17.50;63.00;;;;;;4800380;29;20224;-33
2023/09/27 01:12:44;;;;;;;8.05;5.63;;;17.50;63.10;;;;;;4800604;29;20217;-33
2023/09/27 01:15:11;;;;;;;7.05;5.65;;;17.50;63.00;;;;;;4784868;29;20218;-33
2023/09/27 01:17:55;;;;;;;6.87;5.10;;;17.40;63.00;;;;;;4808529;29;20303;-33
2023/09/27 01:20:26;;;;;;;7.63;5.40;;;17.40;63.10;;;;;;4801747;29;20249;-32
2023/09/27 01:22:58;;;;;;;8.95;5.25;;;17.40;63.10;;;;;;4800406;29;20320;-32
2023/09/27 01:25:36;;;;;;;6.70;4.93;;;17.30;63.10;;;;;;4801687;29;20225;-32
2023/09/27 01:28:10;;;;;;;7.85;5.30;;;17.30;63.30;;;;;;4800211;29;20221;-32
2023/09/27 01:30:38;;;;;;;10.57;5.17;;;17.30;63.30;;;;;;4801878;29;20346;-32
2023/09/27 01:33:10;;;;;;;7.32;5.18;;;17.30;63.30;;;;;;4800324;29;20220;-32
2023/09/27 01:35:43;;;;;;;8.57;5.13;;;17.20;63.30;;;;;;4800295;29;20202;-33
2023/09/27 01:38:14;;;;;;;6.22;4.75;;;17.20;63.40;;;;;;4800180;29;20224;-29
2023/09/27 01:40:43;;;;;;;8.88;6.07;;;17.20;63.40;;;;;;4799875;29;20601;-30
2023/09/27 01:43:11;;;;;;;8.57;6.18;;;17.20;63.40;;;;;;4799819;29;20254;-30
2023/09/27 01:45:42;;;;;;;9.97;5.93;;;17.20;63.50;;;;;;4799850;29;20754;-29
2023/09/27 01:48:10;;;;;;;7.67;5.27;;;17.10;63.40;;;;;;4785330;29;20292;-30
2023/09/27 01:50:37;;;;;;;9.47;5.33;;;17.10;63.40;;;;;;4785053;29;20712;-29
2023/09/27 01:53:07;;;;;;;6.35;5.43;;;17.10;63.50;;;;;;4800339;29;20300;-30
2023/09/27 01:55:37;;;;;;;7.25;5.40;;;17.10;63.50;;;;;;4801250;29;20232;-30
2023/09/27 01:58:04;;;;;;;7.32;5.40;;;17.00;63.60;;;;;;4799743;29;20213;-30
2023/09/27 02:00:32;;;;;;;6.67;5.40;;;17.10;63.60;;;;;;4800890;29;20217;-30
2023/09/27 02:03:01;;;;;;;7.18;5.07;;;17.00;63.60;;;;;;4799498;29;20240;-29
2023/09/27 02:05:30;;;;;;;8.00;4.90;;;17.00;63.60;;;;;;4799683;29;20660;-29
2023/09/27 02:07:59;;;;;;;5.90;5.18;;;17.00;63.60;;;;;;4801783;29;20220;-29
2023/09/27 02:10:27;;;;;;;6.03;5.13;;;17.00;63.60;;;;;;4784887;29;20742;-30
2023/09/27 02:12:59;;;;;;;8.15;5.57;;;16.90;63.60;;;;;;4799449;29;20228;-29
2023/09/27 02:15:31;;;;;;;7.57;5.83;;;16.90;63.70;;;;;;4800817;29;20215;-29
2023/09/27 02:17:58;;;;;;;7.10;5.68;;;16.90;63.70;;;;;;4800294;29;20228;-29
2023/09/27 02:20:25;;;;;;;7.20;5.77;;;16.90;63.70;;;;;;4800828;29;20322;-30
2023/09/27 02:22:54;;;;;;;11.20;5.80;;;16.80;63.70;;;;;;4799270;29;20321;-29
2023/09/27 02:25:25;;;;;;;6.90;6.03;;;16.90;63.80;;;;;;4800825;29;20209;-30
2023/09/27 02:27:55;;;;;;;7.60;6.10;;;16.80;63.90;;;;;;4799618;29;20245;-29
2023/09/27 02:30:22;;;;;;;10.43;6.30;;;16.80;63.90;;;;;;4799396;29;20488;-29
2023/09/27 02:32:52;;;;;;;7.53;5.63;;;16.80;63.90;;;;;;4800481;29;20317;-29
2023/09/27 02:35:21;;;;;;;9.35;5.60;;;16.80;63.90;;;;;;4798993;29;20198;-29
2023/09/27 02:37:51;;;;;;;7.63;5.30;;;16.80;63.90;;;;;;4798710;29;20228;-29
2023/09/27 02:40:18;;;;;;;11.53;6.53;;;16.80;64.00;;;;;;4800547;29;20600;-29
2023/09/27 02:42:48;;;;;;;8.07;5.55;;;16.80;64.10;;;;;;4800379;29;20220;-29
2023/09/27 02:45:15;;;;;;;6.40;4.97;;;16.70;64.00;;;;;;4798822;29;20252;-29
2023/09/27 02:47:47;;;;;;;10.27;5.22;;;16.70;64.00;;;;;;4800258;29;20223;-29
2023/09/27 02:50:15;;;;;;;8.07;5.32;;;16.70;64.10;;;;;;4798410;29;20255;-30
2023/09/27 02:52:45;;;;;;;8.60;5.63;;;16.80;64.20;;;;;;4798558;29;20216;-29
2023/09/27 02:55:13;;;;;;;6.75;5.70;;;16.70;64.10;;;;;;4798894;29;20761;-29
2023/09/27 02:57:50;;;;;;;8.48;5.68;;;16.70;64.20;;;;;;4799999;29;20295;-29
2023/09/27 03:00:21;;;;;;;6.63;4.83;;;16.70;64.20;;;;;;4800160;29;20265;-29
2023/09/27 03:02:48;;;;;;;10.85;5.30;;;16.70;64.30;;;;;;4798927;29;20718;-30
2023/09/27 03:05:18;;;;;;;6.43;5.67;;;16.70;64.30;;;;;;4799457;29;20265;-29
2023/09/27 03:07:49;;;;;;;7.47;5.17;;;16.70;64.30;;;;;;4799125;29;20213;-30
2023/09/27 03:10:19;;;;;;;9.23;5.60;;;16.70;64.30;;;;;;4783691;29;20658;-29
2023/09/27 03:12:51;;;;;;;8.53;5.57;;;16.70;64.30;;;;;;4799727;29;20240;-29
2023/09/27 03:15:19;;;;;;;7.50;5.97;;;16.60;64.20;;;;;;4798251;29;20201;-29
2023/09/27 03:17:47;;;;;;;8.33;5.47;;;16.60;64.30;;;;;;4800036;29;20308;-29
2023/09/27 03:20:18;;;;;;;9.98;6.15;;;16.60;64.30;;;;;;4799690;29;20209;-29
2023/09/27 03:22:46;;;;;;;7.33;5.67;;;16.60;64.30;;;;;;4798019;29;20248;-29
2023/09/27 03:25:17;;;;;;;6.60;5.33;;;16.60;64.50;;;;;;4798027;29;20217;-29
2023/09/27 03:27:46;;;;;;;9.17;5.80;;;16.50;64.40;;;;;;4797587;29;20212;-29
2023/09/27 03:30:16;;;;;;;9.17;5.57;;;16.60;64.50;;;;;;4797880;29;20237;-30
2023/09/27 03:32:45;;;;;;;6.13;5.03;;;16.60;64.50;;;;;;4798189;29;20291;-30
2023/09/27 03:35:16;;;;;;;7.33;5.07;;;16.60;64.50;;;;;;4799775;29;20205;-29
2023/09/27 03:37:44;;;;;;;9.70;5.40;;;16.50;64.50;;;;;;4799330;29;20209;-29
2023/09/27 03:40:15;;;;;;;7.10;6.10;;;16.50;64.60;;;;;;4798030;29;20227;-29
2023/09/27 03:42:44;;;;;;;8.35;6.00;;;16.50;64.60;;;;;;4798038;29;20905;-29
2023/09/27 03:45:14;;;;;;;8.23;5.55;;;16.50;64.60;;;;;;4799109;29;20248;-30
2023/09/27 03:47:46;;;;;;;7.35;6.25;;;16.50;64.70;;;;;;4797939;29;20308;-30
2023/09/27 03:50:14;;;;;;;7.82;5.80;;;16.50;64.70;;;;;;4799307;29;20317;-30
2023/09/27 03:52:46;;;;;;;9.05;6.20;;;16.50;64.80;;;;;;4797855;29;20612;-29
2023/09/27 03:55:15;;;;;;;7.30;6.03;;;16.50;64.80;;;;;;4799383;29;20213;-29
2023/09/27 03:57:43;;;;;;;9.18;6.45;;;16.50;64.80;;;;;;4797636;29;20645;-29
2023/09/27 04:00:18;;;;;;;10.70;7.30;;;16.50;64.80;;;;;;4799149;29;20232;-30
2023/09/27 04:02:47;;;;;;;12.00;6.50;;;16.50;64.90;;;;;;4797864;29;20731;-30
2023/09/27 04:05:18;;;;;;;9.20;5.88;;;16.40;64.80;;;;;;4798604;29;20224;-30
2023/09/27 04:07:51;;;;;;;10.10;6.23;;;16.40;64.90;;;;;;4797318;29;20209;-29
2023/09/27 04:10:19;;;;;;;7.03;5.70;;;16.40;64.90;;;;;;4797650;29;20657;-29
2023/09/27 04:12:48;;;;;;;8.00;6.03;;;16.40;64.90;;;;;;4797607;29;20745;-29
2023/09/27 04:15:18;;;;;;;7.60;6.20;;;16.40;65.00;;;;;;4782726;29;20736;-30
2023/09/27 04:17:45;;;;;;;10.73;5.57;;;16.40;65.00;;;;;;4797335;29;20205;-30
2023/09/27 04:20:17;;;;;;;7.53;6.23;;;16.40;65.00;;;;;;4798616;29;20688;-30
2023/09/27 04:22:47;;;;;;;7.80;5.17;;;16.40;65.10;;;;;;4798632;29;20220;-30
2023/09/27 04:25:18;;;;;;;13.27;6.10;;;16.40;65.10;;;;;;4797406;29;20212;-29
2023/09/27 04:27:50;;;;;;;9.10;6.00;;;16.40;65.10;;;;;;4798615;29;20219;-29
2023/09/27 04:30:19;;;;;;;11.13;5.63;;;16.40;65.20;;;;;;4798544;29;20482;-30
2023/09/27 04:32:51;;;;;;;8.13;5.63;;;16.30;65.10;;;;;;4798730;29;20291;-29
2023/09/27 04:35:19;;;;;;;9.73;6.00;;;16.40;65.20;;;;;;4798314;29;20201;-30
2023/09/27 04:37:49;;;;;;;10.07;7.25;;;16.40;65.20;;;;;;4798582;29;20321;-30
2023/09/27 04:40:17;;;;;;;7.10;6.40;;;16.40;65.30;;;;;;4798888;29;20417;-29
2023/09/27 04:42:47;;;;;;;12.13;7.00;;;16.30;65.20;;;;;;4782150;29;20205;-29
2023/09/27 04:45:17;;;;;;;10.00;7.07;;;16.30;65.20;;;;;;4798374;29;20475;-29
2023/09/27 04:47:46;;;;;;;7.72;6.35;;;16.30;65.30;;;;;;4798553;29;20212;-29
2023/09/27 04:50:16;;;;;;;8.77;6.70;;;16.30;65.30;;;;;;4797267;29;20237;-29
2023/09/27 04:52:44;;;;;;;7.07;5.80;;;16.30;65.30;;;;;;4797761;29;20274;-29
2023/09/27 04:55:14;;;;;;;8.73;6.40;;;16.30;65.30;;;;;;4798320;29;20220;-30
2023/09/27 04:57:42;;;;;;;7.73;6.40;;;16.20;65.20;;;;;;4798361;29;20418;-30
2023/09/27 05:00:18;;;;;;;7.47;6.27;;;16.20;65.30;;;;;;4798198;29;20213;-30
2023/09/27 05:02:50;;;;;;;11.03;6.73;;;16.20;65.30;;;;;;4797033;29;20212;-30
2023/09/27 05:05:19;;;;;;;12.50;6.47;;;16.20;65.30;;;;;;4796788;29;20213;-30
2023/09/27 05:07:48;;;;;;;9.43;6.03;;;16.20;65.30;;;;;;4796663;29;20221;-30
2023/09/27 05:10:17;;;;;;;12.53;5.83;;;16.20;65.30;;;;;;4798236;29;20241;-30
2023/09/27 05:12:46;;;;;;;8.48;6.32;;;16.10;65.40;;;;;;4781507;29;20201;-30
2023/09/27 05:15:14;;;;;;;8.98;6.38;;;16.10;65.40;;;;;;4798228;29;20572;-30
2023/09/27 05:17:41;;;;;;;18.17;5.60;;;16.10;65.40;;;;;;4796751;29;20217;-30
2023/09/27 05:20:10;;;;;;;9.25;6.10;;;16.10;65.40;;;;;;4798209;29;20224;-30
2023/09/27 05:22:39;;;;;;;9.53;5.93;;;16.10;65.40;;;;;;4798023;29;20625;-30
2023/09/27 05:25:12;;;;;;;12.73;6.63;;;16.00;65.40;;;;;;4796942;29;20264;-30
2023/09/27 05:27:43;;;;;;;15.30;6.47;;;16.00;65.40;;;;;;4796633;29;20241;-29
2023/09/27 05:30:11;;;;;;;10.43;6.93;;;16.00;65.50;;;;;;4797123;29;20664;-30
2023/09/27 05:32:41;;;;;;;14.15;6.32;;;16.00;65.50;;;;;;4797978;29;20455;-30
2023/09/27 05:35:09;;;;;;;17.77;6.32;;;16.00;65.50;;;;;;4796773;29;20222;-29
2023/09/27 05:37:37;;;;;;;15.23;6.83;;;16.00;65.50;;;;;;4796926;29;20209;-30
2023/09/27 05:40:07;;;;;;;11.83;5.93;;;15.90;65.40;;;;;;4796537;29;20228;-30
2023/09/27 05:42:35;;;;;;;12.67;6.20;;;15.90;65.50;;;;;;4796419;29;20355;-30
2023/09/27 05:45:05;;;;;;;9.57;6.10;;;15.90;65.60;;;;;;4797948;29;20757;-30
2023/09/27 05:47:33;;;;;;;11.97;6.53;;;15.90;65.60;;;;;;4796961;29;20580;-30
2023/09/27 05:50:00;;;;;;;9.77;5.67;;;15.90;65.70;;;;;;4797745;29;20213;-30
2023/09/27 05:52:28;;;;;;;9.85;5.93;;;15.80;65.60;;;;;;4800152;29;20266;-30
2023/09/27 05:54:56;;;;;;;10.57;6.10;;;15.80;65.60;;;;;;4800964;29;20304;-30
2023/09/27 05:57:26;;;;;;;11.23;6.40;;;15.80;65.70;;;;;;4814080;29;20702;-30
2023/09/27 05:59:58;;;;;;;10.10;6.37;;;15.80;65.80;;;;;;4801059;29;20317;-30
2023/09/27 06:02:30;;;;;;;19.37;7.27;;;15.80;65.80;;;;;;4799773;29;20872;-29
2023/09/27 06:04:59;;;;;;;17.13;6.65;;;15.80;65.90;;;;;;4800940;29;20219;-29
2023/09/27 06:07:26;;;;;;;15.43;6.80;;;15.80;65.90;;;;;;4785295;29;20222;-29
2023/09/27 06:09:53;;;;;;;14.70;6.53;;;15.80;65.90;;;;;;4799359;29;20381;-30
2023/09/27 06:12:23;;;;;;;10.83;6.40;;;15.80;66.20;;;;;;4800497;29;20353;-30
2023/09/27 06:14:52;;;;;;;12.40;6.65;;;15.80;66.00;;;;;;4799196;29;20221;-30
2023/09/27 06:17:24;;;;;;;10.95;7.70;;;15.80;66.00;;;;;;4799005;29;20211;-31
2023/09/27 06:19:55;;;;;;;13.32;7.50;;;15.80;66.00;;;;;;4799339;29;20313;-30
2023/09/27 06:22:27;;;;;;;13.05;6.88;;;15.80;66.10;;;;;;4800674;29;20216;-31
2023/09/27 06:24:54;;;;;;;14.20;7.03;;;15.90;66.20;;;;;;4784216;29;20225;-30
2023/09/27 06:27:21;;;;;;;12.43;7.80;;;15.90;66.30;;;;;;4800435;29;20264;-30
2023/09/27 06:29:48;;;;;;;16.98;7.85;;;15.90;66.30;;;;;;4783849;29;20217;-30
2023/09/27 06:32:15;;;;;;;15.05;7.78;;;15.90;66.30;;;;;;4798720;29;20881;-30
2023/09/27 06:34:45;;;;;;;16.33;8.75;;;15.90;66.30;;;;;;4799257;29;20309;-30
2023/09/27 06:37:13;;;;;;;16.67;8.05;;;15.90;66.30;;;;;;4784110;29;20407;-30
2023/09/27 06:39:43;;;;;;;11.52;7.40;;;16.00;66.40;;;;;;4800181;29;20681;-30
2023/09/27 06:42:15;;;;;;;9.93;7.43;;;16.00;66.40;;;;;;4798822;29;20217;-30
2023/09/27 06:44:45;;;;;;;16.25;8.38;;;16.00;66.50;;;;;;4799302;29;20285;-30
2023/09/27 06:47:14;;;;;;;15.50;8.47;;;16.00;66.50;;;;;;4798798;29;20221;-30
2023/09/27 06:49:41;;;;;;;11.57;7.35;;;16.10;66.50;;;;;;4800093;29;20637;-30
2023/09/27 06:52:13;;;;;;;14.20;8.53;;;16.10;66.50;;;;;;4800025;29;20337;-30
2023/09/27 06:54:40;;;;;;;19.67;8.40;;;16.10;66.50;;;;;;4798697;29;20233;-30
2023/09/27 06:57:08;;;;;;;12.88;8.85;;;16.10;66.60;;;;;;4798587;29;20197;-30
2023/09/27 06:59:36;;;;;;;14.18;8.57;;;16.10;66.60;;;;;;4799719;29;20775;-30
2023/09/27 07:02:03;;;;;;;19.60;8.67;;;16.10;66.60;;;;;;4799597;29;20319;-30
2023/09/27 07:04:30;;;;;;;14.85;10.10;;;16.10;66.60;;;;;;4798555;29;20209;-30
2023/09/27 07:06:58;;;;;;;23.17;9.60;;;16.20;66.70;;;;;;4798153;29;20221;-30
2023/09/27 07:09:27;;;;;;;16.63;9.52;;;16.20;66.70;;;;;;4799564;29;20552;-30
2023/09/27 07:11:57;;;;;;;15.48;9.50;;;16.20;66.80;;;;;;4799579;29;20248;-30
2023/09/27 07:14:26;;;;;;;14.82;9.15;;;16.20;66.80;;;;;;4798251;29;20285;-30
2023/09/27 07:16:57;;;;;;;14.30;8.90;;;16.20;66.80;;;;;;4798005;29;20689;-30
2023/09/27 07:19:30;;;;;;;14.98;10.40;;;16.30;66.90;;;;;;4798243;29;20688;-30
2023/09/27 07:21:57;;;;;;;19.90;11.68;;;16.30;67.00;;;;;;4799678;29;20297;-30
2023/09/27 07:24:29;;;;;;;18.20;10.47;;;16.30;67.00;;;;;;4798278;29;20637;-30
2023/09/27 07:26:59;;;;;;;19.17;10.60;;;16.30;67.10;;;;;;4799448;29;20703;-30
2023/09/27 07:29:27;;;;;;;13.30;10.65;;;16.40;67.10;;;;;;4797569;29;20689;-30
2023/09/27 07:31:54;;;;;;;20.08;10.20;;;16.40;67.10;;;;;;4797869;29;20335;-30
2023/09/27 07:34:21;;;;;;;16.52;9.00;;;16.50;67.30;;;;;;4783028;29;20232;-30
2023/09/27 07:36:53;;;;;;;13.00;7.97;;;16.50;67.30;;;;;;4797663;29;20292;-30
2023/09/27 07:39:22;;;;;;;15.57;8.43;;;16.60;67.30;;;;;;4799046;29;20209;-33
2023/09/27 07:41:50;;;;;;;15.87;8.47;;;16.60;67.40;;;;;;4782980;29;20236;-32
2023/09/27 07:44:21;;;;;;;12.80;8.55;;;16.70;67.40;;;;;;4799122;29;20243;-32
2023/09/27 07:46:48;;;;;;;13.10;8.70;;;16.70;67.40;;;;;;4797579;29;20208;-33
2023/09/27 07:49:16;;;;;;;15.30;7.43;;;16.80;67.50;;;;;;4799248;29;20561;-33
2023/09/27 07:51:46;;;;;;;12.53;8.53;;;16.80;68.20;;;;;;4797630;29;20311;-33
2023/09/27 07:54:16;;;;;;;10.60;8.20;;;16.90;67.50;;;;;;4798716;29;20217;-33
2023/09/27 07:56:45;;;;;;;15.75;9.07;;;16.90;68.30;;;;;;4799448;29;20201;-32
2023/09/27 07:59:14;;;;;;;18.48;9.25;;;17.00;67.50;;;;;;4799048;29;20215;-32
2023/09/27 08:01:41;;;;;;;13.40;8.85;;;17.00;67.50;;;;;;4797431;29;20629;-33
2023/09/27 08:04:12;;;;;;;9.27;8.17;;;17.10;67.50;;;;;;4797597;29;20205;-32
2023/09/27 08:06:42;;;;;;;10.15;8.55;;;17.10;67.60;;;;;;4798598;29;20411;-32
2023/09/27 08:09:09;;;;;;;12.70;8.27;;;17.20;67.60;;;;;;4798654;29;20260;-33
2023/09/27 08:11:58;;;;;;;14.52;8.68;;;17.20;67.60;;;;;;4797379;29;20259;-33
2023/09/27 08:14:26;;;;;;;16.98;8.80;;;17.30;67.70;;;;;;4796689;29;20256;-33
2023/09/27 08:16:53;;;;;;;14.02;8.20;;;17.30;67.70;;;;;;4797334;29;20273;-33
2023/09/27 08:19:24;;;;;;;15.50;8.27;;;17.40;67.80;;;;;;4797381;29;20742;-30
2023/09/27 08:21:52;;;;;;;16.80;8.07;;;17.40;67.80;;;;;;4797186;29;20208;-30
2023/09/27 08:24:22;;;;;;;12.30;8.02;;;17.50;67.90;;;;;;4798887;29;20722;-30
2023/09/27 08:26:49;;;;;;;14.25;8.13;;;17.60;68.00;;;;;;4797330;29;20325;-30
2023/09/27 08:29:21;;;;;;;13.82;7.05;;;17.70;68.00;;;;;;4797392;29;20212;-30
2023/09/27 08:31:53;;;;;;;9.93;6.85;;;17.70;68.00;;;;;;4798454;29;20224;-30
2023/09/27 08:34:20;;;;;;;8.93;6.63;;;17.80;68.10;;;;;;4797371;29;20281;-30
2023/09/27 08:36:54;;;;;;;8.98;6.80;;;17.90;68.30;;;;;;4796922;29;21056;-30
2023/09/27 08:39:22;;;;;;;10.82;6.10;;;18.00;68.30;;;;;;4797071;29;20613;-32
2023/09/27 08:41:49;;;;;;;8.67;5.53;;;18.00;68.30;;;;;;4798090;29;20212;-33
2023/09/27 08:44:16;;;;;;;9.30;6.82;;;18.20;68.40;;;;;;4798147;29;20361;-32
2023/09/27 08:46:45;;;;;;;9.77;6.05;;;18.20;68.40;;;;;;4796911;29;20217;-33
2023/09/27 08:49:14;;;;;;;9.48;6.40;;;18.30;68.50;;;;;;4796814;29;20470;-33
2023/09/27 08:51:42;;;;;;;13.93;7.50;;;18.40;68.40;;;;;;4796489;29;20648;-32
2023/09/27 08:54:10;;;;;;;8.40;6.10;;;18.60;68.50;;;;;;4798070;29;20201;-32
2023/09/27 08:56:41;;;;;;;11.23;7.55;;;18.60;68.50;;;;;;4797939;29;20688;-32
2023/09/27 08:59:11;;;;;;;12.52;6.53;;;18.80;68.50;;;;;;4796786;29;20211;-32
2023/09/27 09:01:43;;;;;;;8.77;6.25;;;18.90;68.60;;;;;;4796479;29;20680;-33
2023/09/27 09:04:16;;;;;;;11.18;6.80;;;18.90;68.50;;;;;;4796653;29;20205;-33
2023/09/27 09:06:46;;;;;;;9.27;5.70;;;19.00;68.50;;;;;;4797868;29;20293;-33
2023/09/27 09:09:13;;;;;;;10.27;6.60;;;19.10;68.50;;;;;;4798067;29;20258;-33
2023/09/27 09:11:48;;;;;;;11.85;6.43;;;19.20;68.40;;;;;;4798757;29;20233;-33
2023/09/27 09:14:25;;;;;;;10.70;5.95;;;19.30;68.40;;;;;;4796594;29;20257;-33
2023/09/27 09:16:53;;;;;;;13.60;5.63;;;19.40;68.40;;;;;;4797934;29;20228;-32
2023/09/27 09:19:25;;;;;;;10.30;5.25;;;19.40;68.40;;;;;;4797878;29;20213;-32
2023/09/27 09:22:03;;;;;;;8.70;4.65;;;19.50;68.40;;;;;;4796453;29;20685;-32
2023/09/27 09:24:35;;;;;;;9.23;4.93;;;19.60;68.50;;;;;;4798036;29;20779;-33
2023/09/27 09:27:08;;;;;;;9.55;5.32;;;19.70;68.40;;;;;;4799606;29;20274;-33
2023/09/27 09:29:50;;;;;;;10.77;4.47;;;19.80;68.40;;;;;;4799676;29;20248;-33
2023/09/27 09:32:23;;;;;;;14.40;4.88;;;19.80;68.40;;;;;;4800905;29;20229;-33
2023/09/27 09:34:54;;;;;;;8.15;4.15;;;19.90;68.40;;;;;;4799881;29;20278;-33
2023/09/27 09:37:23;;;;;;;7.80;4.28;;;20.00;68.50;;;;;;4801298;29;20627;-33
2023/09/27 09:39:52;;;;;;;6.63;4.22;;;20.10;68.50;;;;;;4800019;29;20309;-33
2023/09/27 09:42:34;;;;;;;6.70;3.80;;;20.20;69.30;;;;;;4801166;29;20276;-33
2023/09/27 09:45:06;;;;;;;7.20;3.88;;;20.20;68.50;;;;;;4801007;29;20668;-33
2023/09/27 09:47:37;;;;;;;5.03;3.72;;;20.30;68.40;;;;;;4801417;29;20220;-33
2023/09/27 09:50:16;;;;;;;8.88;3.75;;;20.40;68.40;;;;;;4801117;29;20209;-33
2023/09/27 09:52:58;;;;;;;5.57;3.60;;;20.50;68.50;;;;;;4799809;29;20241;-33
2023/09/27 09:55:34;;;;;;;5.45;3.47;;;20.50;68.40;;;;;;4799506;29;20736;-33
2023/09/27 09:58:34;;;;;;;6.10;3.80;;;20.60;68.40;;;;;;4800705;29;20197;-33
2023/09/27 10:01:03;;;;;;;6.75;3.58;;;20.70;68.40;;;;;;4800423;29;20209;-33
2023/09/27 10:03:33;;;;;;;7.10;3.30;;;20.70;68.30;;;;;;4799125;29;20296;-33
2023/09/27 10:06:02;;;;;;;10.55;3.47;;;20.80;68.30;;;;;;4800486;29;20248;-33
2023/09/27 10:08:38;;;;;;;5.18;3.10;;;20.90;68.30;;;;;;4800543;29;20209;-33
2023/09/27 10:11:05;;;;;;;5.63;3.35;;;20.90;68.30;;;;;;4800942;29;20211;-33
2023/09/27 10:13:38;;;;;;;6.82;3.30;;;21.00;68.30;;;;;;4800860;29;20200;-33
2023/09/27 10:16:07;;;;;;;7.95;3.58;;;21.10;68.30;;;;;;4800569;29;20227;-33
2023/09/27 10:18:41;;;;;;;6.40;3.22;;;21.10;68.20;;;;;;4800584;29;20641;-29
2023/09/27 10:21:10;;;;;;;7.35;3.33;;;21.20;68.10;;;;;;4799481;29;20269;-30
2023/09/27 10:23:43;;;;;;;5.70;3.08;;;21.30;68.10;;;;;;4800728;29;20217;-30
2023/09/27 10:26:18;;;;;;;5.43;3.42;;;21.30;68.20;;;;;;4799089;29;20311;-30
2023/09/27 10:29:03;;;;;;;5.38;3.63;;;21.40;68.10;;;;;;4799130;29;20700;-30
2023/09/27 10:31:39;;;;;;;6.10;3.05;;;21.40;68.10;;;;;;4800097;29;20538;-30
2023/09/27 10:34:28;;;;;;;6.43;3.40;;;21.50;68.10;;;;;;4800252;29;20205;-30
2023/09/27 10:37:02;;;;;;;7.03;3.63;;;21.60;68.10;;;;;;4800131;29;20228;-30
2023/09/27 10:40:20;;;;;;;9.00;3.70;;;21.60;68.00;;;;;;4799983;29;20681;-30
2023/09/27 10:42:52;;;;;;;10.52;3.95;;;21.70;68.00;;;;;;4798258;29;20227;-30
2023/09/27 10:45:22;;;;;;;9.60;4.50;;;21.80;68.00;;;;;;4799776;29;20217;-30
2023/09/27 10:47:52;;;;;;;5.10;3.25;;;21.80;67.90;;;;;;4799913;29;20227;-30
2023/09/27 10:50:27;;;;;;;6.28;3.50;;;21.90;68.00;;;;;;4799661;29;20221;-30
2023/09/27 10:52:57;;;;;;;7.45;3.72;;;22.00;68.10;;;;;;4800028;29;20608;-30
2023/09/27 10:55:24;;;;;;;7.50;3.72;;;22.00;68.10;;;;;;4799528;29;20200;-30
2023/09/27 10:57:51;;;;;;;7.53;3.95;;;22.10;68.00;;;;;;4783719;29;20525;-30
2023/09/27 11:00:21;;;;;;;6.00;3.22;;;22.20;68.10;;;;;;4800247;29;20229;-33
2023/09/27 11:02:48;;;;;;;5.30;3.50;;;22.30;68.00;;;;;;4799881;29;20312;-33
2023/09/27 11:05:24;;;;;;;3.75;3.03;;;22.30;68.00;;;;;;4798021;29;20231;-33
2023/09/27 11:07:51;;;;;;;8.82;3.67;;;22.40;68.00;;;;;;4798314;29;20274;-33
2023/09/27 11:10:33;;;;;;;6.50;3.45;;;22.40;67.90;;;;;;4783545;29;20765;-33
2023/09/27 11:13:19;;;;;;;8.15;3.90;;;22.50;67.90;;;;;;4799549;29;20679;-34
2023/09/27 11:15:46;;;;;;;4.82;3.58;;;22.60;67.80;;;;;;4798079;29;20461;-33
2023/09/27 11:18:16;;;;;;;10.40;3.78;;;22.60;67.90;;;;;;4797831;29;20324;-33
2023/09/27 11:20:43;;;;;;;6.28;3.03;;;22.70;67.90;;;;;;4799236;29;20205;-37
2023/09/27 11:23:10;;;;;;;6.93;3.08;;;22.80;67.90;;;;;;4797956;29;20227;-33
2023/09/27 11:25:38;;;;;;;7.53;3.33;;;22.80;67.90;;;;;;4799457;29;20253;-33
2023/09/27 11:28:14;;;;;;;6.18;3.58;;;22.90;67.90;;;;;;4797924;29;20304;-33
2023/09/27 11:30:44;;;;;;;5.90;3.45;;;23.00;67.90;;;;;;4797804;29;20749;-33
2023/09/27 11:33:16;;;;;;;8.88;3.78;;;23.00;67.80;;;;;;4797799;29;20237;-33
2023/09/27 11:35:51;;;;;;;5.00;3.35;;;23.10;67.80;;;;;;4799881;29;20713;-33
2023/09/27 11:38:28;;;;;;;4.57;2.85;;;23.20;67.80;;;;;;4797834;29;20320;-33
2023/09/27 11:40:55;;;;;;;8.88;3.40;;;23.20;67.60;;;;;;4799158;29;20300;-33
2023/09/27 11:43:31;;;;;;;6.20;3.20;;;23.30;67.50;;;;;;4797294;29;20301;-33
2023/09/27 11:46:03;;;;;;;4.38;3.15;;;23.30;67.30;;;;;;4799117;29;20300;-32
2023/09/27 11:48:34;;;;;;;6.43;2.67;;;23.40;67.40;;;;;;4799009;29;20212;-33
2023/09/27 11:51:02;;;;;;;5.50;2.83;;;23.40;67.30;;;;;;4797437;29;20651;-33
2023/09/27 11:53:30;;;;;;;4.75;2.47;;;23.50;67.30;;;;;;4796959;29;20235;-33
2023/09/27 11:55:59;;;;;;;5.38;2.65;;;23.50;67.20;;;;;;4796987;29;20225;-33
2023/09/27 11:58:29;;;;;;;9.32;2.95;;;23.60;67.20;;;;;;4797227;29;20304;-33
2023/09/27 12:00:56;;;;;;;7.00;2.90;;;23.60;67.00;;;;;;4797373;29;20334;-30
2023/09/27 12:03:25;;;;;;;5.38;2.60;;;23.60;67.00;;;;;;4797307;29;20292;-30
2023/09/27 12:05:55;;;;;;;5.88;2.95;;;23.70;66.90;;;;;;4797511;29;20602;-30
2023/09/27 12:08:25;;;;;;;11.30;2.97;;;23.70;66.80;;;;;;4797219;29;20521;-30
2023/09/27 12:10:55;;;;;;;5.53;2.65;;;23.80;66.80;;;;;;4798993;29;20692;-30
2023/09/27 12:13:23;;;;;;;6.05;2.80;;;23.70;66.50;;;;;;4783190;29;20247;-33
2023/09/27 12:15:52;;;;;;;5.80;2.60;;;23.80;66.50;;;;;;4797120;29;20307;-33
2023/09/27 12:18:20;;;;;;;6.97;2.97;;;23.80;66.40;;;;;;4797060;29;20625;-33
2023/09/27 12:20:48;;;;;;;5.47;2.22;;;23.80;66.40;;;;;;4796957;29;20209;-33
2023/09/27 12:23:18;;;;;;;5.22;2.50;;;23.80;66.10;;;;;;4798556;29;20285;-33
2023/09/27 12:25:48;;;;;;;4.57;2.47;;;23.80;65.90;;;;;;4797154;29;20740;-33
2023/09/27 12:28:17;;;;;;;3.42;2.40;;;23.80;66.00;;;;;;4797031;29;20315;-33
2023/09/27 12:30:44;;;;;;;5.78;2.65;;;23.80;66.00;;;;;;4796664;29;20205;-33
2023/09/27 12:33:15;;;;;;;5.05;2.50;;;23.80;65.90;;;;;;4798370;29;20667;-33
2023/09/27 12:35:49;;;;;;;6.18;2.55;;;23.80;65.90;;;;;;4796724;29;20232;-33
2023/09/27 12:38:17;;;;;;;5.53;2.65;;;23.90;65.90;;;;;;4796713;29;20209;-33
2023/09/27 12:40:44;;;;;;;4.72;2.80;;;23.90;65.90;;;;;;4782041;29;20700;-33
2023/09/27 12:43:13;;;;;;;6.63;2.47;;;23.90;65.70;;;;;;4797957;29;20551;-33
2023/09/27 12:45:41;;;;;;;7.38;2.97;;;23.90;65.70;;;;;;4797165;29;20217;-33
2023/09/27 12:48:11;;;;;;;7.95;3.10;;;23.90;65.70;;;;;;4796613;29;20304;-33
2023/09/27 12:50:41;;;;;;;7.85;2.80;;;23.90;65.60;;;;;;4797539;29;20635;-33
2023/09/27 12:53:09;;;;;;;7.47;2.75;;;23.90;65.50;;;;;;4796533;29;20236;-32
2023/09/27 12:55:40;;;;;;;5.82;2.30;;;23.90;65.50;;;;;;4798159;29;20225;-33
2023/09/27 12:58:08;;;;;;;6.43;2.45;;;24.00;65.50;;;;;;4797053;29;20205;-33